East Vail, Colorado
Current Conditions -  °F | °C
As of 3:37 AM on Thursday 23 Oct 2014 (Local Time) from KCCU Reporting Station
Clear Clear  
Wind Chill: 25°   Ceiling: Unl
Heat Index: 34°   Visibility: 10mi
Dew Point: 27°   Wind: 13mph
Humidity: 75%   Direction: 250°WSW
Pressure: 30.45"   Gusts: 20mph
Location:  39.5908°N, 106.4°W
Report Text: KCCU 230937Z AUTO 25011G17KT 10SM CLR 01/M03 A3045 RMK AO2
Loading
Personal Weather Stations






























Interactive Weather Map
Tropical Storm Tracking
New forecast layout! Learn more

10-Day Weather Forecast

Advertisements
Track Severe Weather on mobile